Аэропорт: Хомутово. Южно-Сахалинск

ICAO: UHSS

METAR:
2020-08-12 07:00:00
UHSS 120700Z 25004MPS 9999 FEW046 27/18 Q1000 R01/70D NOSIG RMK QFE749/0999
METAR:
2020-08-12 05:00:00
TAF UHSS 120500Z 1206/1312 27003MPS 9999 BKN030CB BECMG 1218/1221 36003MPS